createdAt,value
2018-08-25T00:01:02.514Z,6.80
2018-08-25T00:03:30.737Z,7.17
2018-08-25T00:05:58.960Z,7.67
2018-08-25T00:08:27.159Z,6.60
2018-08-25T00:10:55.368Z,7.20
2018-08-25T00:13:23.675Z,7.70
2018-08-25T00:15:51.890Z,6.60
2018-08-25T00:18:20.148Z,7.13
2018-08-25T00:20:48.399Z,7.50
2018-08-25T00:23:16.654Z,6.07
2018-08-25T00:25:45.007Z,8.23
2018-08-25T00:28:13.343Z,8.17
2018-08-25T00:30:47.086Z,7.27
2018-08-25T00:33:15.370Z,7.10
2018-08-25T00:35:43.637Z,9.00
2018-08-25T00:38:11.944Z,6.73
2018-08-25T00:40:40.198Z,7.20
2018-08-25T00:43:08.455Z,6.70
2018-08-25T00:45:36.711Z,7.07
2018-08-25T00:48:05.011Z,5.90
2018-08-25T00:50:33.305Z,6.70
2018-08-25T00:53:01.555Z,6.67
2018-08-25T00:55:29.842Z,7.07
2018-08-25T00:57:58.138Z,6.57
2018-08-25T01:00:27.315Z,6.03
2018-08-25T01:02:55.611Z,6.90
2018-08-25T01:05:23.869Z,6.90
2018-08-25T01:07:52.146Z,6.60
2018-08-25T01:10:20.408Z,6.43
2018-08-25T01:12:48.674Z,8.07
2018-08-25T01:15:16.983Z,6.90
2018-08-25T01:17:45.254Z,7.17
2018-08-25T01:20:13.496Z,6.60
2018-08-25T01:22:41.761Z,6.73
2018-08-25T01:25:09.981Z,6.30
2018-08-25T01:27:38.431Z,6.43
2018-08-25T01:30:06.804Z,6.53
2018-08-25T01:32:35.020Z,6.80
2018-08-25T01:35:03.269Z,6.83
2018-08-25T01:37:31.473Z,7.60
2018-08-25T01:39:59.755Z,6.40
2018-08-25T01:42:28.008Z,7.00
2018-08-25T01:44:56.286Z,6.87
2018-08-25T01:47:24.480Z,7.10
2018-08-25T01:49:52.709Z,7.30
2018-08-25T01:52:20.909Z,8.37
2018-08-25T01:54:49.190Z,7.10
2018-08-25T01:57:17.421Z,6.97
2018-08-25T01:59:45.656Z,6.70
2018-08-25T02:02:13.911Z,7.23
2018-08-25T02:04:42.142Z,6.67
2018-08-25T02:07:10.382Z,6.40
2018-08-25T02:09:38.646Z,6.50
2018-08-25T02:12:06.890Z,7.43
2018-08-25T02:14:35.095Z,6.33
2018-08-25T02:17:03.530Z,7.53
2018-08-25T02:19:31.766Z,6.33
2018-08-25T02:21:59.980Z,6.57
2018-08-25T02:24:28.198Z,6.03
2018-08-25T02:26:56.573Z,6.47
2018-08-25T02:29:24.904Z,7.10
2018-08-25T02:31:53.132Z,6.20
2018-08-25T02:34:21.461Z,6.60
2018-08-25T02:36:49.746Z,6.67
2018-08-25T02:39:18.055Z,7.07
2018-08-25T02:41:46.326Z,7.60
2018-08-25T02:44:14.582Z,7.30
2018-08-25T02:46:42.903Z,7.97
2018-08-25T02:49:11.160Z,6.70
2018-08-25T02:51:39.391Z,7.43
2018-08-25T02:54:07.762Z,6.43
2018-08-25T02:56:36.082Z,7.47
2018-08-25T02:59:04.264Z,6.27
2018-08-25T03:01:32.538Z,6.77
2018-08-25T03:04:00.775Z,7.90
2018-08-25T03:06:28.997Z,6.60
2018-08-25T03:08:57.262Z,6.80
2018-08-25T03:11:25.493Z,7.20
2018-08-25T03:13:53.781Z,6.60
2018-08-25T03:16:22.078Z,6.13
2018-08-25T03:18:50.358Z,6.17
2018-08-25T03:21:18.554Z,6.93
2018-08-25T03:23:46.864Z,6.37
2018-08-25T03:26:15.110Z,6.30
2018-08-25T03:28:43.342Z,6.33
2018-08-25T03:31:11.558Z,6.50
2018-08-25T03:33:39.829Z,7.00
2018-08-25T03:36:08.037Z,6.43
2018-08-25T03:38:36.245Z,7.30
2018-08-25T03:41:04.459Z,7.20
2018-08-25T03:43:32.746Z,6.13
2018-08-25T03:46:00.977Z,6.40
2018-08-25T03:48:29.190Z,6.90
2018-08-25T03:50:57.424Z,6.83
2018-08-25T03:53:25.622Z,6.47
2018-08-25T03:55:53.799Z,7.97
2018-08-25T03:58:22.040Z,6.83
2018-08-25T04:00:50.271Z,5.93
2018-08-25T04:03:18.536Z,6.00
2018-08-25T04:05:46.703Z,6.57
2018-08-25T04:08:14.960Z,6.77
2018-08-25T04:10:49.805Z,7.10
2018-08-25T04:13:18.024Z,6.83
2018-08-25T04:15:46.213Z,5.90
2018-08-25T04:18:14.415Z,6.23
2018-08-25T04:20:42.660Z,6.17
2018-08-25T04:23:10.885Z,6.87
2018-08-25T04:25:39.115Z,5.97
2018-08-25T04:28:07.313Z,6.17
2018-08-25T04:30:35.566Z,6.20
2018-08-25T04:33:03.754Z,6.50
2018-08-25T04:35:31.951Z,5.60
2018-08-25T04:38:00.190Z,6.23
2018-08-25T04:40:28.402Z,6.20
2018-08-25T04:42:56.624Z,6.10
2018-08-25T04:45:24.870Z,6.10
2018-08-25T04:47:53.157Z,5.90
2018-08-25T04:50:21.598Z,6.87
2018-08-25T04:52:49.934Z,5.80
2018-08-25T04:55:18.190Z,6.70
2018-08-25T04:57:46.403Z,6.27
2018-08-25T05:00:14.608Z,6.70
2018-08-25T05:02:42.865Z,6.80
2018-08-25T05:05:11.077Z,6.17
2018-08-25T05:07:39.360Z,6.57
2018-08-25T05:10:07.574Z,6.90
2018-08-25T05:12:35.825Z,6.37
2018-08-25T05:15:04.034Z,6.53
2018-08-25T05:17:32.610Z,6.70
2018-08-25T05:20:00.996Z,6.40
2018-08-25T05:22:29.247Z,6.03
2018-08-25T05:24:57.547Z,6.50
2018-08-25T05:27:25.861Z,6.90
2018-08-25T05:29:54.193Z,6.63
2018-08-25T05:32:22.401Z,5.90
2018-08-25T05:34:50.634Z,6.90
2018-08-25T05:37:18.839Z,7.10
2018-08-25T05:39:47.098Z,6.53
2018-08-25T05:42:15.351Z,6.77
2018-08-25T05:44:43.627Z,6.27
2018-08-25T05:47:11.922Z,6.80
2018-08-25T05:49:40.127Z,7.30
2018-08-25T05:52:08.380Z,6.90
2018-08-25T05:54:36.634Z,6.10
2018-08-25T05:57:04.916Z,7.07
2018-08-25T05:59:33.226Z,6.93
2018-08-25T06:02:01.467Z,7.30
2018-08-25T06:04:29.696Z,6.50
2018-08-25T06:06:58.676Z,6.13
2018-08-25T06:09:26.926Z,7.47
2018-08-25T06:11:55.251Z,6.97
2018-08-25T06:14:23.501Z,7.80
2018-08-25T06:16:51.777Z,6.37
2018-08-25T06:19:20.095Z,7.30
2018-08-25T06:21:48.309Z,6.63
2018-08-25T06:24:16.556Z,5.87
2018-08-25T06:26:44.850Z,8.20
2018-08-25T06:29:13.160Z,6.83
2018-08-25T06:31:41.463Z,7.80
2018-08-25T06:34:09.704Z,7.80
2018-08-25T06:36:38.044Z,8.47
2018-08-25T06:39:07.554Z,6.80
2018-08-25T06:41:35.847Z,6.77
2018-08-25T06:44:04.143Z,7.30
2018-08-25T06:46:32.395Z,8.00
2018-08-25T06:49:00.955Z,6.73
2018-08-25T06:51:29.177Z,6.03
2018-08-25T06:53:57.467Z,7.20
2018-08-25T06:56:25.719Z,6.97
2018-08-25T06:58:53.903Z,7.00
2018-08-25T07:01:22.402Z,6.37
2018-08-25T07:03:51.139Z,6.23
2018-08-25T07:06:19.333Z,5.67
2018-08-25T07:08:47.798Z,5.20
2018-08-25T07:11:16.018Z,5.13
2018-08-25T07:13:44.252Z,5.63
2018-08-25T07:16:12.439Z,5.00
2018-08-25T07:18:40.703Z,6.60
2018-08-25T07:21:08.967Z,5.73
2018-08-25T07:23:37.161Z,4.93
2018-08-25T07:26:05.796Z,4.50
2018-08-25T07:28:40.538Z,4.20
2018-08-25T07:31:08.764Z,4.80
2018-08-25T07:33:37.015Z,4.60
2018-08-25T07:36:05.319Z,4.33
2018-08-25T07:38:33.718Z,4.57
2018-08-25T07:41:02.041Z,6.10
2018-08-25T07:43:30.233Z,5.80
2018-08-25T07:45:58.438Z,4.93
2018-08-25T07:48:26.697Z,5.03
2018-08-25T07:50:54.858Z,4.40
2018-08-25T07:53:23.169Z,4.80
2018-08-25T07:55:51.431Z,5.60
2018-08-25T07:58:19.721Z,4.50
2018-08-25T08:00:47.994Z,6.20
2018-08-25T08:03:16.267Z,5.40
2018-08-25T08:05:44.737Z,4.83
2018-08-25T08:08:12.978Z,5.13
2018-08-25T08:10:41.165Z,5.87
2018-08-25T08:13:09.388Z,5.33
2018-08-25T08:15:37.793Z,6.53
2018-08-25T08:18:06.014Z,5.43
2018-08-25T08:20:34.286Z,5.70
2018-08-25T08:23:02.618Z,4.60
2018-08-25T08:25:34.118Z,5.17
2018-08-25T08:28:05.421Z,4.77
2018-08-25T08:30:33.645Z,5.97
2018-08-25T08:33:02.000Z,5.03
2018-08-25T08:35:30.173Z,5.63
2018-08-25T08:37:58.455Z,4.70
2018-08-25T08:40:26.698Z,4.60
2018-08-25T08:42:54.934Z,5.30
2018-08-25T08:45:23.183Z,4.00
2018-08-25T08:47:51.410Z,6.30
2018-08-25T08:50:19.663Z,5.93
2018-08-25T08:52:48.025Z,3.73
2018-08-25T08:55:16.971Z,4.13
2018-08-25T08:57:45.189Z,5.20
2018-08-25T09:00:13.600Z,4.30
2018-08-25T09:02:41.858Z,9.10
2018-08-25T09:05:10.086Z,3.93
2018-08-25T09:07:38.374Z,4.70
2018-08-25T09:10:06.668Z,6.00
2018-08-25T09:12:35.113Z,7.07
2018-08-25T09:15:03.305Z,4.43
2018-08-25T09:17:31.597Z,4.50
2018-08-25T09:19:59.823Z,4.20
2018-08-25T09:22:28.054Z,4.10
2018-08-25T09:24:56.311Z,3.93
2018-08-25T09:27:24.606Z,4.07
2018-08-25T09:29:52.724Z,3.87
2018-08-25T09:32:20.979Z,5.20
2018-08-25T09:34:49.749Z,4.17
2018-08-25T09:37:17.988Z,3.83
2018-08-25T09:39:46.235Z,2.80
2018-08-25T09:42:14.459Z,3.10
2018-08-25T09:44:42.748Z,3.43
2018-08-25T09:47:11.042Z,3.60
2018-08-25T09:49:39.211Z,2.80
2018-08-25T09:52:07.438Z,3.40
2018-08-25T09:54:35.671Z,3.50
2018-08-25T09:57:03.880Z,3.20
2018-08-25T09:59:32.132Z,3.70
2018-08-25T10:02:01.393Z,3.93
2018-08-25T10:04:30.648Z,3.30
2018-08-25T10:06:59.142Z,4.30
2018-08-25T10:09:27.387Z,2.90
2018-08-25T10:11:55.920Z,4.00
2018-08-25T10:14:24.199Z,3.97
2018-08-25T10:16:52.442Z,3.07
2018-08-25T10:19:20.633Z,3.10
2018-08-25T10:21:48.859Z,3.43
2018-08-25T10:24:17.158Z,3.83
2018-08-25T10:26:45.362Z,4.43
2018-08-25T10:29:13.622Z,4.00
2018-08-25T10:31:41.867Z,4.30
2018-08-25T10:34:10.255Z,5.20
2018-08-25T10:36:38.483Z,4.83
2018-08-25T10:39:09.092Z,4.57
2018-08-25T10:41:37.471Z,4.30
2018-08-25T10:44:06.150Z,5.80
2018-08-25T10:46:34.550Z,4.03
2018-08-25T10:49:02.802Z,5.00
2018-08-25T10:51:31.120Z,3.43
2018-08-25T10:53:59.388Z,3.80
2018-08-25T10:56:27.630Z,3.23
2018-08-25T10:58:55.869Z,3.67
2018-08-25T11:01:24.059Z,3.53
2018-08-25T11:03:52.341Z,3.60
2018-08-25T11:06:20.663Z,3.60
2018-08-25T11:08:48.986Z,3.80
2018-08-25T11:11:17.209Z,2.87
2018-08-25T11:13:45.609Z,3.87
2018-08-25T11:16:13.868Z,4.10
2018-08-25T11:18:42.454Z,4.27
2018-08-25T11:21:10.726Z,3.27
2018-08-25T11:23:38.978Z,2.83
2018-08-25T11:26:07.225Z,3.40
2018-08-25T11:28:35.544Z,3.27
2018-08-25T11:31:03.813Z,4.40
2018-08-25T11:33:32.205Z,3.33
2018-08-25T11:36:00.435Z,3.83
2018-08-25T11:38:28.648Z,3.63
2018-08-25T11:40:56.891Z,3.27
2018-08-25T11:43:25.094Z,3.30
2018-08-25T11:45:53.434Z,3.20
2018-08-25T11:48:21.635Z,3.00
2018-08-25T11:50:49.926Z,3.60
2018-08-25T11:53:18.222Z,4.07
2018-08-25T11:55:46.578Z,21.33
2018-08-25T11:58:14.827Z,3.73
2018-08-25T12:00:43.110Z,4.10
2018-08-25T12:03:11.299Z,4.33
2018-08-25T12:05:39.536Z,3.33
2018-08-25T12:08:07.821Z,4.27
2018-08-25T12:10:36.046Z,3.73
2018-08-25T12:13:04.354Z,4.03
2018-08-25T12:15:32.566Z,3.47
2018-08-25T12:18:00.954Z,3.37
2018-08-25T12:20:29.176Z,3.70
2018-08-25T12:22:57.511Z,4.53
2018-08-25T12:25:25.787Z,3.33
2018-08-25T12:27:54.031Z,4.00
2018-08-25T12:30:22.340Z,3.00
2018-08-25T12:32:50.674Z,3.67
2018-08-25T12:35:18.907Z,2.30
2018-08-25T12:37:47.166Z,3.03
2018-08-25T12:40:15.340Z,2.87
2018-08-25T12:42:43.622Z,3.20
2018-08-25T12:45:11.962Z,2.63
2018-08-25T12:47:40.158Z,2.90
2018-08-25T12:50:08.454Z,2.70
2018-08-25T12:52:36.619Z,3.90
2018-08-25T12:55:05.130Z,4.50
2018-08-25T12:57:33.363Z,3.00
2018-08-25T13:00:01.703Z,3.10
2018-08-25T13:02:29.940Z,2.90
2018-08-25T13:04:58.198Z,3.20
2018-08-25T13:07:26.435Z,3.60
2018-08-25T13:09:54.674Z,2.70
2018-08-25T13:12:22.928Z,2.93
2018-08-25T13:14:51.272Z,2.90
2018-08-25T13:17:19.445Z,3.10
2018-08-25T13:19:47.686Z,2.87
2018-08-25T13:22:15.901Z,3.23
2018-08-25T13:24:44.170Z,2.70
2018-08-25T13:27:12.546Z,3.20
2018-08-25T13:29:40.751Z,2.80
2018-08-25T13:32:09.082Z,2.70
2018-08-25T13:34:37.309Z,2.90
2018-08-25T13:37:05.697Z,4.17
2018-08-25T13:39:33.983Z,3.67
2018-08-25T13:42:02.675Z,3.10
2018-08-25T13:44:31.677Z,6.13
2018-08-25T13:46:59.981Z,3.57
2018-08-25T13:49:28.211Z,3.97
2018-08-25T13:51:56.496Z,3.37
2018-08-25T13:54:24.826Z,3.20
2018-08-25T13:56:53.032Z,3.20
2018-08-25T13:59:21.334Z,2.77
2018-08-25T14:01:49.557Z,2.90
2018-08-25T14:04:17.855Z,2.90
2018-08-25T14:06:46.144Z,2.47
2018-08-25T14:09:14.392Z,2.63
2018-08-25T14:11:42.663Z,2.40
2018-08-25T14:14:10.931Z,2.47
2018-08-25T14:16:39.167Z,2.70
2018-08-25T14:19:07.397Z,2.40
2018-08-25T14:21:35.631Z,4.87
2018-08-25T14:24:03.901Z,4.43
2018-08-25T14:26:32.119Z,2.73
2018-08-25T14:29:00.307Z,2.90
2018-08-25T14:31:28.758Z,3.00
2018-08-25T14:33:56.958Z,2.40
2018-08-25T14:36:25.202Z,2.40
2018-08-25T14:38:53.399Z,3.00
2018-08-25T14:41:21.693Z,2.50
2018-08-25T14:43:51.724Z,3.00
2018-08-25T14:46:19.993Z,2.87
2018-08-25T14:48:48.261Z,3.27
2018-08-25T14:51:16.506Z,2.97
2018-08-25T14:53:44.749Z,2.70
2018-08-25T14:56:12.987Z,3.43
2018-08-25T14:58:41.229Z,2.80
2018-08-25T15:01:09.616Z,3.00
2018-08-25T15:03:38.121Z,2.90
2018-08-25T15:06:06.343Z,3.70
2018-08-25T15:08:34.588Z,3.20
2018-08-25T15:11:02.839Z,3.30
2018-08-25T15:13:31.031Z,3.20
2018-08-25T15:16:01.843Z,3.40
2018-08-25T15:18:30.535Z,4.93
2018-08-25T15:20:58.890Z,3.60
2018-08-25T15:23:27.713Z,3.23
2018-08-25T15:25:56.610Z,3.67
2018-08-25T15:28:24.882Z,4.10
2018-08-25T15:30:53.111Z,3.90
2018-08-25T15:33:21.350Z,2.50
2018-08-25T15:35:49.578Z,2.50
2018-08-25T15:38:17.774Z,2.73
2018-08-25T15:40:46.051Z,3.10
2018-08-25T15:43:14.287Z,3.33
2018-08-25T15:45:42.496Z,3.03
2018-08-25T15:48:10.720Z,2.60
2018-08-25T15:50:38.935Z,3.10
2018-08-25T15:53:07.242Z,3.30
2018-08-25T15:55:35.409Z,2.90
2018-08-25T15:58:03.842Z,2.80
2018-08-25T16:00:32.066Z,3.27
2018-08-25T16:03:03.272Z,2.93
2018-08-25T16:05:38.122Z,4.00
2018-08-25T16:08:06.289Z,2.50
2018-08-25T16:10:34.547Z,2.90
2018-08-25T16:13:02.798Z,3.27
2018-08-25T16:15:31.026Z,5.07
2018-08-25T16:17:59.299Z,3.23
2018-08-25T16:20:27.504Z,3.97
2018-08-25T16:22:55.785Z,3.30
2018-08-25T16:25:23.995Z,3.10
2018-08-25T16:27:52.208Z,2.83
2018-08-25T16:30:20.446Z,4.10
2018-08-25T16:32:48.668Z,3.80
2018-08-25T16:35:16.934Z,3.57
2018-08-25T16:37:45.125Z,3.20
2018-08-25T16:40:13.424Z,4.30
2018-08-25T16:42:41.670Z,3.90
2018-08-25T16:45:09.945Z,3.23
2018-08-25T16:47:38.192Z,2.70
2018-08-25T16:50:06.467Z,3.47
2018-08-25T16:52:34.800Z,4.07
2018-08-25T16:55:03.022Z,2.97
2018-08-25T16:57:31.255Z,3.40
2018-08-25T16:59:59.545Z,3.93
2018-08-25T17:02:27.909Z,3.97
2018-08-25T17:04:56.206Z,4.30
2018-08-25T17:07:24.539Z,3.67
2018-08-25T17:09:52.783Z,7.03
2018-08-25T17:12:21.110Z,3.90
2018-08-25T17:14:49.364Z,3.70
2018-08-25T17:17:17.627Z,3.60
2018-08-25T17:19:45.989Z,3.63
2018-08-25T17:22:14.187Z,3.93
2018-08-25T17:24:42.424Z,3.83
2018-08-25T17:27:10.639Z,4.33
2018-08-25T17:29:38.885Z,2.93
2018-08-25T17:32:07.090Z,3.87
2018-08-25T17:34:35.313Z,4.47
2018-08-25T17:37:03.547Z,3.23
2018-08-25T17:39:31.882Z,3.33
2018-08-25T17:42:00.170Z,3.20
2018-08-25T17:44:28.424Z,4.97
2018-08-25T17:46:56.613Z,3.10
2018-08-25T17:49:24.820Z,4.30
2018-08-25T17:51:53.078Z,4.20
2018-08-25T17:54:21.338Z,4.70
2018-08-25T17:56:49.629Z,4.30
2018-08-25T17:59:17.995Z,3.50
2018-08-25T18:01:46.261Z,3.47
2018-08-25T18:04:15.490Z,3.20
2018-08-25T18:06:43.687Z,3.23
2018-08-25T18:09:11.932Z,3.00
2018-08-25T18:11:40.129Z,3.23
2018-08-25T18:14:08.327Z,3.73
2018-08-25T18:16:36.553Z,2.67
2018-08-25T18:19:05.235Z,4.27
2018-08-25T18:21:33.451Z,4.60
2018-08-25T18:24:01.666Z,4.03
2018-08-25T18:26:29.933Z,3.73
2018-08-25T18:28:58.135Z,3.00
2018-08-25T18:31:26.405Z,3.60
2018-08-25T18:33:54.659Z,3.97
2018-08-25T18:36:23.374Z,3.70
2018-08-25T18:38:51.580Z,3.00
2018-08-25T18:41:19.811Z,3.50
2018-08-25T18:43:48.085Z,3.27
2018-08-25T18:46:16.990Z,3.03
2018-08-25T18:48:45.238Z,3.07
2018-08-25T18:51:13.455Z,3.20
2018-08-25T18:53:41.755Z,3.33
2018-08-25T18:56:10.036Z,3.50
2018-08-25T18:58:38.317Z,3.70
2018-08-25T19:01:06.547Z,3.60
2018-08-25T19:03:34.766Z,3.50
2018-08-25T19:06:03.037Z,3.50
2018-08-25T19:08:31.392Z,3.50
2018-08-25T19:10:59.669Z,3.60
2018-08-25T19:13:27.919Z,3.60
2018-08-25T19:15:56.209Z,3.37
2018-08-25T19:18:24.483Z,3.47
2018-08-25T19:20:52.842Z,3.20
2018-08-25T19:23:21.109Z,3.17
2018-08-25T19:25:49.482Z,2.90
2018-08-25T19:28:17.734Z,4.07
2018-08-25T19:30:45.987Z,2.53
2018-08-25T19:33:20.493Z,2.13
2018-08-25T19:35:49.589Z,1.57
2018-08-25T19:38:17.858Z,1.60
2018-08-25T19:40:46.103Z,1.60
2018-08-25T19:43:14.306Z,1.23
2018-08-25T19:45:42.554Z,1.50
2018-08-25T19:48:10.864Z,2.27
2018-08-25T19:50:39.209Z,2.20
2018-08-25T19:53:07.497Z,2.53
2018-08-25T19:55:35.718Z,2.47
2018-08-25T19:58:03.969Z,2.40
2018-08-25T20:00:33.275Z,2.40
2018-08-25T20:03:01.491Z,2.50
2018-08-25T20:05:29.845Z,9.90
2018-08-25T20:07:57.954Z,6.13
2018-08-25T20:10:26.234Z,3.90
2018-08-25T20:12:54.483Z,4.73
2018-08-25T20:15:22.847Z,3.00
2018-08-25T20:17:51.088Z,3.70
2018-08-25T20:20:19.596Z,3.73
2018-08-25T20:22:47.825Z,3.17
2018-08-25T20:25:16.030Z,3.37
2018-08-25T20:27:44.325Z,3.73
2018-08-25T20:30:12.660Z,3.50
2018-08-25T20:32:40.923Z,3.47
2018-08-25T20:35:09.502Z,3.40
2018-08-25T20:37:37.723Z,4.10
2018-08-25T20:40:06.003Z,3.47
2018-08-25T20:42:34.255Z,3.70
2018-08-25T20:45:02.521Z,3.30
2018-08-25T20:47:30.815Z,3.20
2018-08-25T20:49:59.241Z,3.30
2018-08-25T20:52:27.470Z,2.80
2018-08-25T20:54:55.876Z,4.43
2018-08-25T20:57:24.126Z,3.73
2018-08-25T20:59:52.370Z,2.77
2018-08-25T21:02:20.674Z,3.30
2018-08-25T21:04:48.951Z,3.40
2018-08-25T21:07:17.150Z,3.17
2018-08-25T21:09:45.482Z,3.50
2018-08-25T21:12:13.785Z,2.90
2018-08-25T21:14:42.042Z,3.17
2018-08-25T21:17:10.337Z,3.90
2018-08-25T21:19:38.815Z,6.60
2018-08-25T21:22:07.035Z,3.07
2018-08-25T21:24:35.335Z,2.70
2018-08-25T21:27:03.569Z,3.10
2018-08-25T21:29:31.811Z,3.90
2018-08-25T21:32:00.095Z,2.60
2018-08-25T21:34:28.365Z,4.20
2018-08-25T21:36:56.681Z,2.60
2018-08-25T21:39:25.005Z,2.77
2018-08-25T21:41:53.249Z,2.87
2018-08-25T21:44:21.563Z,3.03
2018-08-25T21:46:49.802Z,2.57
2018-08-25T21:49:18.065Z,2.77
2018-08-25T21:51:46.422Z,3.13
2018-08-25T21:54:14.687Z,2.10
2018-08-25T21:56:43.088Z,2.47
2018-08-25T21:59:11.467Z,5.70
2018-08-25T22:01:43.329Z,3.00
2018-08-25T22:04:12.399Z,2.37
2018-08-25T22:06:40.668Z,2.53
2018-08-25T22:09:11.162Z,2.17
2018-08-25T22:11:39.745Z,2.80
2018-08-25T22:14:08.002Z,2.10
2018-08-25T22:16:36.239Z,2.40
2018-08-25T22:19:04.554Z,2.40
2018-08-25T22:21:32.808Z,2.27
2018-08-25T22:24:01.064Z,2.43
2018-08-25T22:26:29.358Z,2.00
2018-08-25T22:28:57.553Z,3.03
2018-08-25T22:31:25.831Z,2.53
2018-08-25T22:33:54.043Z,1.70
2018-08-25T22:36:22.334Z,2.37
2018-08-25T22:38:50.604Z,2.20
2018-08-25T22:41:19.033Z,2.37
2018-08-25T22:43:47.187Z,2.27
2018-08-25T22:46:15.449Z,2.30
2018-08-25T22:48:43.693Z,2.30
2018-08-25T22:51:11.955Z,2.63
2018-08-25T22:53:40.211Z,1.90
2018-08-25T22:56:08.422Z,2.00
2018-08-25T22:58:36.689Z,2.20
2018-08-25T23:01:04.887Z,2.63
2018-08-25T23:03:33.100Z,2.20
2018-08-25T23:06:01.340Z,2.07
2018-08-25T23:08:29.586Z,2.40
2018-08-25T23:10:57.813Z,3.00
2018-08-25T23:13:26.034Z,2.37
2018-08-25T23:15:54.314Z,2.23
2018-08-25T23:18:22.641Z,2.37
2018-08-25T23:20:50.922Z,2.30
2018-08-25T23:23:19.172Z,2.43
2018-08-25T23:25:47.451Z,2.23
2018-08-25T23:28:15.773Z,2.50
2018-08-25T23:30:44.040Z,2.00
2018-08-25T23:33:12.295Z,2.50
2018-08-25T23:35:40.549Z,2.23
2018-08-25T23:38:08.812Z,1.97
2018-08-25T23:40:37.022Z,1.90
2018-08-25T23:43:05.271Z,2.10
2018-08-25T23:45:33.526Z,2.80
2018-08-25T23:48:01.798Z,2.40
2018-08-25T23:50:36.504Z,2.37
2018-08-25T23:53:04.835Z,2.03
2018-08-25T23:55:33.127Z,2.20
2018-08-25T23:58:01.454Z,2.10
